Monday, June 27, 2016, 5:26 AM EDT

KTHV, York Airport

Location: Spring Grove, PA, United States Lat: 39.917
Local Time: 5:26 AM EDT ( 9:26 GMT) Lon: -76.883
Time Zone: US/Eastern Elev: 478 ft

Show me the last for .
Show Decoded

2016-06-27 04:53 METAR KTHV 270853Z AUTO 00000KT 10SM CLR 17/14 A3009 RMK AO2 SLP189 T01670139
                 56010 =
2016-06-27 03:53 METAR KTHV 270753Z AUTO 00000KT 10SM CLR 16/13 A3010 RMK AO2 SLP193 T01560133 =
2016-06-27 02:53 METAR KTHV 270653Z AUTO 00000KT 10SM CLR 16/13 A3011 RMK AO2 SLP195 T01560133 =
2016-06-27 01:53 METAR KTHV 270553Z AUTO 00000KT 10SM CLR 16/14 A3012 RMK AO2 SLP200 T01560139
                 10256 20150 58004 =
2016-06-27 00:53 METAR KTHV 270453Z AUTO 00000KT 10SM CLR 17/14 A3013 RMK AO2 SLP204 T01670139
                 402890139 =
2016-06-26 23:53 METAR KTHV 270353Z AUTO 00000KT 10SM CLR 20/13 A3015 RMK AO2 SLP206 T02000128 =
2016-06-26 22:53 METAR KTHV 270253Z AUTO 19004KT 10SM CLR 22/13 A3014 RMK AO2 SLP203 T02170128
                 53005 =
2016-06-26 21:53 METAR KTHV 270153Z AUTO 00000KT 10SM CLR 23/12 A3012 RMK AO2 SLP199 T02280122 =
2016-06-26 20:53 METAR KTHV 270053Z AUTO VRB05KT 10SM CLR 24/14 A3011 RMK AO2 SLP195 T02390139 =
2016-06-26 19:53 METAR KTHV 262353Z AUTO VRB03KT 10SM CLR 26/13 A3012 RMK AO2 SLP198 T02560133
                 10289 20256 56013 =
2016-06-26 18:53 METAR KTHV 262253Z AUTO VRB04KT 10SM CLR 27/14 A3013 RMK AO2 SLP202 T02670139 =
2016-06-26 17:53 METAR KTHV 262153Z AUTO VRB03KT 10SM CLR 28/15 A3014 RMK AO2 SLP207 T02780150 =
2016-06-26 16:53 METAR KTHV 262053Z AUTO VRB04KT 10SM CLR 28/14 A3016 RMK AO2 SLP212 T02830144
                 56018 =
2016-06-26 15:53 METAR KTHV 261953Z AUTO 21007KT 10SM FEW065 28/15 A3017 RMK AO2 SLP215 T02830150
                 =
2016-06-26 14:53 METAR KTHV 261853Z AUTO VRB03KT 10SM CLR 28/15 A3019 RMK AO2 SLP224 T02830150 =
2016-06-26 13:53 METAR KTHV 261753Z AUTO VRB05KT 10SM CLR 28/15 A3021 RMK AO2 SLP230 T02780150
                 10283 20200 58007 =
2016-06-26 12:53 METAR KTHV 261653Z AUTO 10SM CLR 27/16 A3023 RMK AO2 SLP235 T02720156 =
2016-06-26 11:53 METAR KTHV 261553Z AUTO VRB03KT 10SM CLR 27/15 A3024 RMK AO2 SLP239 T02670150 =
2016-06-26 10:53 METAR KTHV 261453Z AUTO 00000KT 10SM CLR 26/16 A3023 RMK AO2 SLP236 T02560156
                 53004 =
2016-06-26 09:53 METAR KTHV 261353Z AUTO 21006KT 10SM CLR 24/16 A3023 RMK AO2 SLP234 T02440156 =
2016-06-26 08:53 METAR KTHV 261253Z AUTO VRB03KT 10SM CLR 22/16 A3023 RMK AO2 SLP233 T02220156 =
2016-06-26 07:53 METAR KTHV 261153Z AUTO 00000KT 10SM CLR 20/16 A3022 RMK AO2 SLP233 T02000156
                 10200 20139 56001 =
2016-06-26 06:53 METAR KTHV 261053Z AUTO 00000KT 9SM CLR 17/15 A3022 RMK AO2 SLP234 T01670150 =
2016-06-26 05:53 METAR KTHV 260953Z AUTO 00000KT 9SM CLR 14/13 A3022 RMK AO2 SLP233 T01440133 =

Support USWX by starting your Amazon purchase here.